createdAt,value
2024-04-24T00:03:30.899Z,7.7039
2024-04-24T00:13:39.756Z,7.6971
2024-04-24T00:23:48.549Z,7.6881
2024-04-24T00:34:09.772Z,7.6851
2024-04-24T00:44:18.383Z,7.6798
2024-04-24T00:54:27.090Z,7.6754
2024-04-24T01:04:36.776Z,7.6715
2024-04-24T01:14:45.295Z,7.6665
2024-04-24T01:25:06.465Z,7.6671
2024-04-24T01:35:27.705Z,7.6608
2024-04-24T01:45:36.434Z,7.6537
2024-04-24T01:55:46.060Z,7.6485
2024-04-24T02:05:54.644Z,7.6465
2024-04-24T02:16:15.838Z,7.6437
2024-04-24T02:26:37.020Z,7.6380
2024-04-24T02:36:45.626Z,7.6325
2024-04-24T02:46:54.556Z,7.6315
2024-04-24T02:57:15.758Z,7.6263
2024-04-24T03:07:24.379Z,7.6171
2024-04-24T03:17:34.304Z,7.6140
2024-04-24T03:27:43.011Z,7.6094
2024-04-24T03:38:04.179Z,7.6024
2024-04-24T03:48:25.559Z,7.5902
2024-04-24T03:58:34.621Z,7.5921
2024-04-24T04:08:43.220Z,7.5840
2024-04-24T04:18:53.008Z,7.5796
2024-04-24T04:29:05.962Z,7.5683
2024-04-24T04:39:15.709Z,7.5694
2024-04-24T04:49:24.505Z,7.5604
2024-04-24T04:59:34.169Z,7.5498
2024-04-24T05:09:42.796Z,7.5421
2024-04-24T05:20:04.330Z,7.5392
2024-04-24T05:30:13.190Z,7.5298
2024-04-24T05:40:24.196Z,7.5183
2024-04-24T05:50:33.095Z,7.5133
2024-04-24T06:00:42.145Z,7.5069
2024-04-24T06:11:00.721Z,7.5044
2024-04-24T06:21:09.900Z,7.4935
2024-04-24T06:31:18.848Z,7.4865
2024-04-24T06:41:27.896Z,7.4808
2024-04-24T06:51:39.080Z,7.4752
2024-04-24T07:01:48.368Z,7.4671
2024-04-24T07:12:04.922Z,7.4562
2024-04-24T07:22:16.456Z,7.4565
2024-04-24T07:32:25.232Z,7.4474
2024-04-24T07:42:33.995Z,7.4414
2024-04-24T07:52:45.364Z,7.4383
2024-04-24T08:02:54.477Z,7.4313
2024-04-24T08:13:10.426Z,7.4265
2024-04-24T08:23:24.002Z,7.4237
2024-04-24T08:33:34.512Z,7.4185
2024-04-24T08:43:43.350Z,7.4131
2024-04-24T08:53:59.078Z,7.4135
2024-04-24T09:04:08.281Z,7.4081
2024-04-24T09:14:17.521Z,7.4098
2024-04-24T09:24:26.606Z,7.4056
2024-04-24T09:34:36.416Z,7.4129
2024-04-24T09:44:45.720Z,7.4108
2024-04-24T09:54:55.403Z,7.4135
2024-04-24T10:05:04.348Z,7.4217
2024-04-24T10:15:13.297Z,7.4237
2024-04-24T10:25:23.083Z,7.4302
2024-04-24T10:35:32.012Z,7.4408
2024-04-24T10:45:42.651Z,7.4494
2024-04-24T10:55:52.021Z,7.4625
2024-04-24T11:06:00.995Z,7.4752
2024-04-24T11:16:11.276Z,7.4917
2024-04-24T11:26:20.270Z,7.5021
2024-04-24T11:36:29.119Z,7.5183
2024-04-24T11:46:38.724Z,7.5400
2024-04-24T11:56:47.356Z,7.5548
2024-04-24T12:06:56.023Z,7.5723
2024-04-24T12:17:04.950Z,7.5908
2024-04-24T12:27:13.736Z,7.6081
2024-04-24T12:37:34.990Z,7.6255
2024-04-24T12:47:43.999Z,7.6429
2024-04-24T12:57:52.763Z,7.6635
2024-04-24T13:08:14.030Z,7.6800
2024-04-24T13:18:23.476Z,7.6902
2024-04-24T13:28:33.087Z,7.7125
2024-04-24T13:38:54.318Z,7.7247
2024-04-24T13:49:03.394Z,7.7458
2024-04-24T13:59:13.277Z,7.7583
2024-04-24T14:09:22.272Z,7.7773
2024-04-24T14:19:31.163Z,7.7929
2024-04-24T14:29:39.977Z,7.8117
2024-04-24T14:39:48.861Z,7.8254
2024-04-24T14:50:01.618Z,7.8394
2024-04-24T15:00:10.531Z,7.8548
2024-04-24T15:10:19.352Z,7.8708
2024-04-24T15:20:40.601Z,7.8880
2024-04-24T15:30:49.584Z,7.9019
2024-04-24T15:40:58.381Z,7.9133
2024-04-24T15:51:19.599Z,7.9357
2024-04-24T16:01:28.563Z,7.9469
2024-04-24T16:11:37.511Z,7.9617
2024-04-24T16:21:46.447Z,7.9679
2024-04-24T16:31:55.286Z,7.9850
2024-04-24T16:42:03.800Z,7.9992
2024-04-24T16:52:25.033Z,8.0139
2024-04-24T17:02:34.039Z,8.0271
2024-04-24T17:12:42.938Z,8.0367
2024-04-24T17:22:51.818Z,8.0473
2024-04-24T17:33:00.722Z,8.0562
2024-04-24T17:43:09.702Z,8.0704
2024-04-24T17:53:18.426Z,8.0777
2024-04-24T18:03:39.715Z,8.0906
2024-04-24T18:13:48.692Z,8.1006
2024-04-24T18:23:57.476Z,8.1106
2024-04-24T18:34:18.711Z,8.1198
2024-04-24T18:44:40.085Z,8.1259
2024-04-24T18:54:48.880Z,8.1346
2024-04-24T19:05:00.030Z,8.1440
2024-04-24T19:15:08.805Z,8.1498
2024-04-24T19:25:30.136Z,8.1518
2024-04-24T19:35:38.955Z,8.1602
2024-04-24T19:45:47.941Z,8.1633
2024-04-24T19:55:56.729Z,8.1646
2024-04-24T20:06:05.370Z,8.1696
2024-04-24T20:16:14.196Z,8.1694
2024-04-24T20:26:35.586Z,8.1773
2024-04-24T20:36:44.484Z,8.1746
2024-04-24T20:46:53.265Z,8.1796
2024-04-24T20:57:14.482Z,8.1751
2024-04-24T21:07:23.203Z,8.1771
2024-04-24T21:17:32.028Z,8.1781
2024-04-24T21:27:40.841Z,8.1733
2024-04-24T21:37:49.430Z,8.1706
2024-04-24T21:48:10.700Z,8.1757
2024-04-24T21:58:31.955Z,8.1678
2024-04-24T22:08:40.743Z,8.1644
2024-04-24T22:18:49.791Z,8.1615
2024-04-24T22:28:58.624Z,8.1565
2024-04-24T22:39:07.259Z,8.1575
2024-04-24T22:49:28.497Z,8.1504
2024-04-24T22:59:37.328Z,8.1500
2024-04-24T23:09:45.970Z,8.1440
2024-04-24T23:20:07.252Z,8.1398
2024-04-24T23:30:15.823Z,8.1298
2024-04-24T23:40:24.507Z,8.1237
2024-04-24T23:50:33.341Z,8.1156
